createdAt,value
2022-08-23T00:00:57.686Z,0.00
2022-08-23T00:01:57.918Z,0.00
2022-08-23T00:02:57.688Z,0.00
2022-08-23T00:03:57.622Z,0.00
2022-08-23T00:05:07.569Z,0.00
2022-08-23T00:05:58.609Z,0.00
2022-08-23T00:06:57.587Z,0.00
2022-08-23T00:07:57.595Z,0.00
2022-08-23T00:08:57.566Z,0.00
2022-08-23T00:09:57.550Z,0.00
2022-08-23T00:10:57.563Z,0.00
2022-08-23T00:11:57.550Z,0.00
2022-08-23T00:12:57.530Z,0.00
2022-08-23T00:13:57.544Z,0.00
2022-08-23T00:14:57.529Z,0.00
2022-08-23T00:15:57.501Z,0.00
2022-08-23T00:16:57.502Z,0.00
2022-08-23T00:17:57.558Z,0.00
2022-08-23T00:18:57.458Z,0.00
2022-08-23T00:19:57.444Z,0.00
2022-08-23T00:20:57.438Z,0.00
2022-08-23T00:21:57.424Z,0.00
2022-08-23T00:22:57.418Z,0.00
2022-08-23T00:23:57.423Z,0.00
2022-08-23T00:24:57.384Z,0.00
2022-08-23T00:25:57.378Z,0.00
2022-08-23T00:26:57.375Z,0.00
2022-08-23T00:27:57.421Z,0.00
2022-08-23T00:28:57.345Z,0.00
2022-08-23T00:29:57.334Z,0.00
2022-08-23T00:30:57.325Z,0.00
2022-08-23T00:31:57.336Z,0.00
2022-08-23T00:32:58.027Z,0.00
2022-08-23T00:33:57.287Z,0.00
2022-08-23T00:34:57.278Z,0.00
2022-08-23T00:35:57.271Z,0.00
2022-08-23T00:36:57.268Z,0.00
2022-08-23T00:38:10.583Z,0.00
2022-08-23T00:38:58.228Z,0.00
2022-08-23T00:39:57.290Z,0.00
2022-08-23T00:40:57.210Z,0.00
2022-08-23T00:41:57.212Z,0.00
2022-08-23T00:42:57.191Z,0.00
2022-08-23T00:43:57.179Z,0.00
2022-08-23T00:44:57.169Z,0.00
2022-08-23T00:45:57.150Z,0.00
2022-08-23T00:46:57.154Z,0.00
2022-08-23T00:47:57.157Z,0.00
2022-08-23T00:48:57.124Z,0.00
2022-08-23T00:49:57.112Z,0.00
2022-08-23T00:50:57.104Z,0.00
2022-08-23T00:51:57.092Z,0.00
2022-08-23T00:52:57.082Z,0.00
2022-08-23T00:53:57.063Z,0.00
2022-08-23T00:54:57.053Z,0.00
2022-08-23T00:55:57.043Z,0.00
2022-08-23T00:56:57.053Z,0.00
2022-08-23T00:57:57.013Z,0.00
2022-08-23T00:58:57.075Z,0.00
2022-08-23T00:59:57.003Z,0.00
2022-08-23T01:00:56.987Z,0.00
2022-08-23T01:01:57.028Z,0.00
2022-08-23T01:02:56.974Z,0.00
2022-08-23T01:04:03.983Z,0.00
2022-08-23T01:04:57.947Z,0.00
2022-08-23T01:05:56.938Z,0.00
2022-08-23T01:06:56.935Z,0.00
2022-08-23T01:07:56.998Z,0.00
2022-08-23T01:08:56.906Z,0.00
2022-08-23T01:09:56.886Z,0.00
2022-08-23T01:10:56.878Z,0.00
2022-08-23T01:11:56.877Z,0.00
2022-08-23T01:12:56.857Z,0.00
2022-08-23T01:13:56.848Z,0.00
2022-08-23T01:14:56.841Z,0.00
2022-08-23T01:15:56.829Z,0.00
2022-08-23T01:16:56.831Z,0.00
2022-08-23T01:17:56.832Z,0.00
2022-08-23T01:18:56.789Z,0.00
2022-08-23T01:19:56.789Z,0.00
2022-08-23T01:20:56.773Z,0.00
2022-08-23T01:21:56.772Z,0.00
2022-08-23T01:22:56.750Z,0.00
2022-08-23T01:23:56.750Z,0.00
2022-08-23T01:25:08.290Z,0.00
2022-08-23T01:25:57.712Z,0.00
2022-08-23T01:26:56.722Z,0.00
2022-08-23T01:27:56.706Z,0.00
2022-08-23T01:28:56.692Z,0.00
2022-08-23T01:29:56.673Z,0.00
2022-08-23T01:30:56.676Z,0.00
2022-08-23T01:31:56.673Z,0.00
2022-08-23T01:32:56.643Z,0.00
2022-08-23T01:33:56.633Z,0.00
2022-08-23T01:34:56.634Z,0.00
2022-08-23T01:35:56.624Z,0.00
2022-08-23T01:36:56.605Z,0.00
2022-08-23T01:37:56.612Z,0.00
2022-08-23T01:38:56.584Z,0.00
2022-08-23T01:39:56.597Z,0.00
2022-08-23T01:40:56.565Z,0.00
2022-08-23T01:41:56.555Z,0.00
2022-08-23T01:42:56.544Z,0.00
2022-08-23T01:43:56.536Z,0.00
2022-08-23T01:44:56.530Z,0.00
2022-08-23T01:45:56.499Z,0.00
2022-08-23T01:46:58.006Z,0.00
2022-08-23T01:47:56.478Z,0.00
2022-08-23T01:48:56.467Z,0.00
2022-08-23T01:49:56.459Z,0.00
2022-08-23T01:50:56.460Z,0.00
2022-08-23T01:51:56.438Z,0.00
2022-08-23T01:52:56.447Z,0.00
2022-08-23T01:53:56.417Z,0.00
2022-08-23T01:54:56.409Z,0.00
2022-08-23T01:55:56.392Z,0.00
2022-08-23T01:56:56.421Z,0.00
2022-08-23T01:57:56.379Z,0.00
2022-08-23T01:58:56.410Z,0.00
2022-08-23T01:59:56.353Z,0.00
2022-08-23T02:00:56.340Z,0.00
2022-08-23T02:01:56.390Z,0.00
2022-08-23T02:02:56.333Z,0.00
2022-08-23T02:03:57.279Z,0.00
2022-08-23T02:04:57.303Z,0.00
2022-08-23T02:05:56.294Z,0.00
2022-08-23T02:06:56.282Z,0.00
2022-08-23T02:07:56.456Z,0.00
2022-08-23T02:08:56.263Z,0.00
2022-08-23T02:09:56.242Z,0.00
2022-08-23T02:10:56.244Z,0.00
2022-08-23T02:11:56.285Z,0.00
2022-08-23T02:12:56.225Z,0.00
2022-08-23T02:13:56.206Z,0.00
2022-08-23T02:14:56.196Z,0.00
2022-08-23T02:15:56.175Z,0.00
2022-08-23T02:17:03.622Z,0.00
2022-08-23T02:17:57.249Z,0.00
2022-08-23T02:18:56.156Z,0.00
2022-08-23T02:19:56.147Z,0.00
2022-08-23T02:20:56.211Z,0.00
2022-08-23T02:21:56.118Z,0.00
2022-08-23T02:22:56.137Z,0.00
2022-08-23T02:23:56.097Z,0.00
2022-08-23T02:24:56.091Z,0.00
2022-08-23T02:25:56.093Z,0.00
2022-08-23T02:26:56.626Z,0.00
2022-08-23T02:27:56.067Z,0.00
2022-08-23T02:28:56.413Z,0.00
2022-08-23T02:29:56.048Z,0.00
2022-08-23T02:30:56.059Z,0.00
2022-08-23T02:31:56.049Z,0.00
2022-08-23T02:32:56.028Z,0.00
2022-08-23T02:35:09.766Z,0.00
2022-08-23T02:36:07.283Z,0.00
2022-08-23T02:37:07.232Z,0.00
2022-08-23T02:38:07.261Z,0.00
2022-08-23T02:39:07.190Z,0.00
2022-08-23T02:40:07.291Z,0.00
2022-08-23T02:41:07.161Z,0.00
2022-08-23T02:42:07.196Z,0.00
2022-08-23T02:43:07.152Z,0.00
2022-08-23T02:44:07.207Z,0.00
2022-08-23T02:45:07.119Z,0.00
2022-08-23T02:46:07.123Z,0.00
2022-08-23T02:47:07.112Z,0.00
2022-08-23T02:48:07.194Z,0.00
2022-08-23T02:49:07.074Z,0.00
2022-08-23T02:50:07.072Z,0.00
2022-08-23T02:51:07.053Z,0.00
2022-08-23T02:52:07.108Z,0.00
2022-08-23T02:53:07.039Z,0.00
2022-08-23T02:54:07.095Z,0.00
2022-08-23T02:55:07.016Z,0.00
2022-08-23T02:56:07.045Z,0.00
2022-08-23T02:57:08.005Z,0.00
2022-08-23T02:58:07.040Z,0.00
2022-08-23T02:59:06.974Z,0.00
2022-08-23T03:00:07.007Z,0.00
2022-08-23T03:01:06.947Z,0.00
2022-08-23T03:02:07.069Z,0.00
2022-08-23T03:03:06.928Z,0.00
2022-08-23T03:04:06.959Z,0.00
2022-08-23T03:05:06.918Z,0.00
2022-08-23T03:06:25.703Z,0.00
2022-08-23T03:07:07.888Z,0.00
2022-08-23T03:08:07.017Z,0.00
2022-08-23T03:09:06.859Z,0.00
2022-08-23T03:10:07.006Z,0.00
2022-08-23T03:11:09.719Z,0.00
2022-08-23T03:12:06.958Z,0.00
2022-08-23T03:13:06.829Z,0.00
2022-08-23T03:14:06.851Z,0.00
2022-08-23T03:15:06.798Z,0.00
2022-08-23T03:16:06.798Z,0.00
2022-08-23T03:17:06.799Z,0.00
2022-08-23T03:18:06.811Z,0.00
2022-08-23T03:19:06.763Z,0.00
2022-08-23T03:20:06.752Z,0.00
2022-08-23T03:21:06.740Z,0.00
2022-08-23T03:22:07.039Z,0.00
2022-08-23T03:23:06.712Z,0.00
2022-08-23T03:24:10.251Z,0.00
2022-08-23T03:25:06.685Z,0.00
2022-08-23T03:26:06.712Z,0.00
2022-08-23T03:27:06.674Z,0.00
2022-08-23T03:28:06.814Z,0.00
2022-08-23T03:29:06.655Z,0.00
2022-08-23T03:30:06.716Z,0.00
2022-08-23T03:31:07.608Z,0.00
2022-08-23T03:32:06.577Z,0.00
2022-08-23T03:33:06.533Z,0.00
2022-08-23T03:34:06.559Z,0.00
2022-08-23T03:35:10.920Z,0.00
2022-08-23T03:36:07.570Z,0.00
2022-08-23T03:37:06.470Z,0.00
2022-08-23T03:38:06.488Z,0.00
2022-08-23T03:39:06.450Z,0.00
2022-08-23T03:40:06.685Z,0.00
2022-08-23T03:41:06.430Z,0.00
2022-08-23T03:42:06.440Z,0.00
2022-08-23T03:43:06.410Z,0.00
2022-08-23T03:44:06.422Z,0.00
2022-08-23T03:45:06.384Z,0.00
2022-08-23T03:46:06.422Z,0.00
2022-08-23T03:47:06.377Z,0.00
2022-08-23T03:48:06.432Z,0.00
2022-08-23T03:49:06.351Z,0.00
2022-08-23T03:50:06.380Z,0.00
2022-08-23T03:51:06.329Z,0.00
2022-08-23T03:52:06.372Z,0.00
2022-08-23T03:53:06.303Z,0.00
2022-08-23T03:54:06.373Z,0.00
2022-08-23T03:55:06.283Z,0.00
2022-08-23T03:56:06.326Z,0.00
2022-08-23T03:57:06.427Z,0.00
2022-08-23T03:58:06.261Z,0.00
2022-08-23T03:59:06.254Z,0.00
2022-08-23T04:00:06.296Z,0.00
2022-08-23T04:01:06.213Z,0.00
2022-08-23T04:02:06.419Z,0.00
2022-08-23T04:03:06.194Z,0.00
2022-08-23T04:04:06.176Z,0.00
2022-08-23T04:05:06.174Z,0.00
2022-08-23T04:06:06.192Z,0.00
2022-08-23T04:07:06.165Z,0.00
2022-08-23T04:08:06.241Z,0.00
2022-08-23T04:09:06.127Z,0.00
2022-08-23T04:10:06.107Z,0.00
2022-08-23T04:11:06.106Z,0.00
2022-08-23T04:12:17.275Z,0.00
2022-08-23T04:13:07.103Z,0.00
2022-08-23T04:14:06.067Z,0.00
2022-08-23T04:15:06.064Z,0.00
2022-08-23T04:16:06.041Z,0.00
2022-08-23T04:17:06.039Z,0.00
2022-08-23T04:18:06.138Z,0.00
2022-08-23T04:19:06.011Z,0.00
2022-08-23T04:20:06.030Z,0.00
2022-08-23T04:21:05.991Z,0.00
2022-08-23T04:22:05.982Z,5.62
2022-08-23T04:23:06.001Z,5.62
2022-08-23T04:24:06.021Z,5.62
2022-08-23T04:25:09.944Z,5.62
2022-08-23T04:26:06.978Z,5.62
2022-08-23T04:27:05.952Z,5.62
2022-08-23T04:28:05.975Z,5.62
2022-08-23T04:29:06.101Z,11.25
2022-08-23T04:30:06.143Z,11.25
2022-08-23T04:31:05.890Z,11.25
2022-08-23T04:32:07.815Z,11.25
2022-08-23T04:33:09.988Z,11.25
2022-08-23T04:34:05.856Z,16.88
2022-08-23T04:35:05.844Z,16.88
2022-08-23T04:36:05.823Z,16.88
2022-08-23T04:37:09.597Z,16.88
2022-08-23T04:38:24.631Z,22.50
2022-08-23T04:39:06.798Z,22.50
2022-08-23T04:40:05.838Z,22.50
2022-08-23T04:41:05.767Z,28.12
2022-08-23T04:42:06.838Z,28.12
2022-08-23T04:43:05.746Z,28.12
2022-08-23T04:44:05.752Z,33.75
2022-08-23T04:45:05.777Z,33.75
2022-08-23T04:46:05.728Z,39.38
2022-08-23T04:47:05.708Z,39.38
2022-08-23T04:48:05.703Z,45.00
2022-08-23T04:49:05.688Z,45.00
2022-08-23T04:50:05.777Z,50.62
2022-08-23T04:51:05.666Z,50.62
2022-08-23T04:52:05.659Z,56.25
2022-08-23T04:53:05.648Z,56.25
2022-08-23T04:54:05.683Z,61.88
2022-08-23T04:55:05.610Z,61.88
2022-08-23T04:56:06.069Z,61.88
2022-08-23T04:57:05.600Z,67.50
2022-08-23T04:58:05.601Z,67.50
2022-08-23T04:59:05.570Z,67.50
2022-08-23T05:00:05.584Z,73.12
2022-08-23T05:01:05.582Z,73.12
2022-08-23T05:02:05.541Z,73.12
2022-08-23T05:03:05.541Z,78.75
2022-08-23T05:04:05.532Z,78.75
2022-08-23T05:05:05.515Z,78.75
2022-08-23T05:06:05.569Z,84.38
2022-08-23T05:07:05.474Z,84.38
2022-08-23T05:08:05.485Z,84.38
2022-08-23T05:09:05.461Z,90.00
2022-08-23T05:10:05.463Z,90.00
2022-08-23T05:11:05.434Z,95.62
2022-08-23T05:12:05.658Z,95.62
2022-08-23T05:13:05.434Z,101.25
2022-08-23T05:15:05.410Z,101.25
2022-08-23T05:16:05.426Z,106.88
2022-08-23T05:17:05.366Z,106.88
2022-08-23T05:18:05.431Z,112.50
2022-08-23T05:19:05.484Z,112.50
2022-08-23T05:20:05.322Z,112.50
2022-08-23T05:21:05.313Z,112.50
2022-08-23T05:22:05.293Z,118.12
2022-08-23T05:23:05.301Z,123.75
2022-08-23T05:24:05.336Z,123.75
2022-08-23T05:25:05.272Z,123.75
2022-08-23T05:26:05.282Z,129.38
2022-08-23T05:27:05.248Z,135.00
2022-08-23T05:28:05.249Z,140.62
2022-08-23T05:29:05.234Z,140.62
2022-08-23T05:30:05.215Z,146.25
2022-08-23T05:31:05.185Z,151.88
2022-08-23T05:32:05.220Z,157.50
2022-08-23T05:33:05.188Z,163.12
2022-08-23T05:34:05.214Z,168.75
2022-08-23T05:35:05.157Z,174.38
2022-08-23T05:36:09.017Z,174.38
2022-08-23T05:37:05.128Z,180.00
2022-08-23T05:38:05.167Z,180.00
2022-08-23T05:39:05.156Z,180.00
2022-08-23T05:40:05.164Z,174.38
2022-08-23T05:41:05.447Z,174.38
2022-08-23T05:42:05.113Z,174.38
2022-08-23T05:43:05.078Z,168.75
2022-08-23T05:44:05.143Z,174.38
2022-08-23T05:45:06.192Z,174.38
2022-08-23T05:46:05.070Z,180.00
2022-08-23T05:47:05.020Z,180.00
2022-08-23T05:48:06.131Z,180.00
2022-08-23T05:49:05.020Z,185.62
2022-08-23T05:50:05.021Z,185.62
2022-08-23T05:51:04.982Z,191.25
2022-08-23T05:52:04.981Z,191.25
2022-08-23T05:53:04.971Z,191.25
2022-08-23T05:54:04.954Z,196.88
2022-08-23T05:55:04.941Z,196.88
2022-08-23T05:56:04.934Z,202.50
2022-08-23T05:57:04.922Z,208.12
2022-08-23T05:58:04.920Z,213.75
2022-08-23T05:59:04.924Z,236.25
2022-08-23T06:00:04.894Z,405.00
2022-08-23T06:01:04.938Z,680.62
2022-08-23T06:02:04.883Z,787.50
2022-08-23T06:03:04.864Z,534.38
2022-08-23T06:04:04.847Z,472.50
2022-08-23T06:05:04.833Z,534.38
2022-08-23T06:06:04.850Z,545.62
2022-08-23T06:07:04.810Z,568.12
2022-08-23T06:08:04.822Z,579.38
2022-08-23T06:09:04.787Z,585.00
2022-08-23T06:10:04.785Z,562.50
2022-08-23T06:11:04.777Z,618.75
2022-08-23T06:12:04.816Z,630.00
2022-08-23T06:13:04.757Z,635.62
2022-08-23T06:14:04.838Z,646.88
2022-08-23T06:15:04.718Z,562.50
2022-08-23T06:16:14.861Z,421.88
2022-08-23T06:17:05.698Z,568.12
2022-08-23T06:18:04.703Z,714.38
2022-08-23T06:19:04.689Z,731.25
2022-08-23T06:20:04.792Z,663.75
2022-08-23T06:21:04.664Z,545.62
2022-08-23T06:22:04.754Z,748.12
2022-08-23T06:23:04.649Z,725.62
2022-08-23T06:24:04.650Z,871.88
2022-08-23T06:25:07.123Z,826.88
2022-08-23T06:26:04.812Z,877.50
2022-08-23T06:27:04.602Z,911.25
2022-08-23T06:28:04.593Z,900.00
2022-08-23T06:29:04.599Z,894.38
2022-08-23T06:30:04.613Z,883.12
2022-08-23T06:31:04.582Z,472.50
2022-08-23T06:32:04.575Z,798.75
2022-08-23T06:33:04.545Z,843.75
2022-08-23T06:34:04.604Z,399.38
2022-08-23T06:35:19.471Z,826.88
2022-08-23T06:36:05.495Z,1029.38
2022-08-23T06:37:04.485Z,1029.38
2022-08-23T06:38:04.477Z,1046.25
2022-08-23T06:39:04.476Z,1096.88
2022-08-23T06:40:04.497Z,1136.25
2022-08-23T06:41:04.450Z,1130.62
2022-08-23T06:42:13.317Z,1153.12
2022-08-23T06:43:05.418Z,1203.75
2022-08-23T06:44:04.430Z,1203.75
2022-08-23T06:45:04.409Z,1215.00
2022-08-23T06:46:04.390Z,1276.88
2022-08-23T06:47:04.485Z,1265.62
2022-08-23T06:48:04.471Z,1243.12
2022-08-23T06:49:04.371Z,1293.75
2022-08-23T06:50:04.363Z,1344.38
2022-08-23T06:51:04.331Z,1372.50
2022-08-23T06:52:04.355Z,1378.12
2022-08-23T06:53:07.241Z,1406.25
2022-08-23T06:54:05.321Z,1485.00
2022-08-23T06:55:04.293Z,1462.50
2022-08-23T06:56:04.284Z,1507.50
2022-08-23T06:57:04.273Z,1518.75
2022-08-23T06:58:04.295Z,1507.50
2022-08-23T06:59:04.275Z,1518.75
2022-08-23T07:00:04.305Z,1580.62
2022-08-23T07:01:04.244Z,1563.75
2022-08-23T07:02:04.399Z,1541.25
2022-08-23T07:03:04.592Z,1586.25
2022-08-23T07:04:04.228Z,1665.00
2022-08-23T07:05:04.189Z,1597.50
2022-08-23T07:06:04.183Z,1620.00
2022-08-23T07:07:06.157Z,1693.12
2022-08-23T07:08:05.169Z,1648.12
2022-08-23T07:09:04.157Z,1670.62
2022-08-23T07:10:04.191Z,1721.25
2022-08-23T07:11:04.120Z,1693.12
2022-08-23T07:12:04.542Z,1670.62
2022-08-23T07:13:04.111Z,1687.50
2022-08-23T07:14:04.094Z,1687.50
2022-08-23T07:15:04.083Z,1676.25
2022-08-23T07:16:04.124Z,1704.38
2022-08-23T07:17:04.072Z,1704.38
2022-08-23T07:18:04.062Z,1845.00
2022-08-23T07:19:04.033Z,1867.50
2022-08-23T07:20:04.034Z,1861.88
2022-08-23T07:21:04.024Z,1890.00
2022-08-23T07:22:04.065Z,1923.75
2022-08-23T07:23:04.075Z,1906.88
2022-08-23T07:24:03.996Z,1861.88
2022-08-23T07:25:03.974Z,1845.00
2022-08-23T07:26:04.168Z,1890.00
2022-08-23T07:27:03.969Z,1951.88
2022-08-23T07:28:06.514Z,1968.75
2022-08-23T07:29:03.936Z,2064.38
2022-08-23T07:30:03.936Z,2075.62
2022-08-23T07:31:03.909Z,2103.75
2022-08-23T07:32:05.018Z,2193.75
2022-08-23T07:33:03.901Z,2109.38
2022-08-23T07:34:03.925Z,2047.50
2022-08-23T07:35:03.911Z,2098.12
2022-08-23T07:36:04.672Z,2199.38
2022-08-23T07:37:04.445Z,2205.00
2022-08-23T07:38:04.879Z,2193.75
2022-08-23T07:39:03.831Z,2193.75
2022-08-23T07:40:03.877Z,2188.12
2022-08-23T07:41:03.816Z,2238.75
2022-08-23T07:42:15.922Z,2210.62
2022-08-23T07:43:04.794Z,2295.00
2022-08-23T07:44:03.785Z,2306.25
2022-08-23T07:45:03.779Z,2362.50
2022-08-23T07:46:04.389Z,2390.62
2022-08-23T07:47:03.751Z,2424.38
2022-08-23T07:48:03.928Z,2475.00
2022-08-23T07:49:03.727Z,2458.12
2022-08-23T07:50:03.718Z,2446.88
2022-08-23T07:51:03.710Z,2413.12
2022-08-23T07:52:03.741Z,2430.00
2022-08-23T07:53:03.709Z,2531.25
2022-08-23T07:54:03.699Z,2610.00
2022-08-23T07:55:03.660Z,2581.88
2022-08-23T07:56:03.662Z,2655.00
2022-08-23T07:57:03.767Z,2570.62
2022-08-23T07:58:03.687Z,2491.88
2022-08-23T07:59:03.625Z,2480.62
2022-08-23T08:00:03.636Z,2553.75
2022-08-23T08:01:03.601Z,2503.12
2022-08-23T08:02:03.675Z,2593.12
2022-08-23T08:03:03.671Z,2536.88
2022-08-23T08:04:03.617Z,2531.25
2022-08-23T08:05:03.580Z,2553.75
2022-08-23T08:06:03.998Z,2531.25
2022-08-23T08:07:20.973Z,2565.00
2022-08-23T08:08:04.559Z,2778.75
2022-08-23T08:09:03.528Z,2750.62
2022-08-23T08:10:03.507Z,2508.75
2022-08-23T08:11:03.498Z,2649.38
2022-08-23T08:12:03.504Z,2745.00
2022-08-23T08:13:03.490Z,2767.50
2022-08-23T08:14:03.479Z,2806.88
2022-08-23T08:15:03.470Z,2835.00
2022-08-23T08:16:03.577Z,2778.75
2022-08-23T08:17:03.445Z,2795.62
2022-08-23T08:18:03.450Z,2750.62
2022-08-23T08:19:03.425Z,2851.88
2022-08-23T08:20:03.430Z,2925.00
2022-08-23T08:21:03.404Z,2823.75
2022-08-23T08:22:03.419Z,2767.50
2022-08-23T08:23:03.406Z,2840.62
2022-08-23T08:24:03.389Z,2896.88
2022-08-23T08:25:03.366Z,2745.00
2022-08-23T08:26:03.379Z,2610.00
2022-08-23T08:27:03.347Z,2638.12
2022-08-23T08:28:03.495Z,2610.00
2022-08-23T08:29:03.328Z,2778.75
2022-08-23T08:30:03.329Z,2947.50
2022-08-23T08:31:03.348Z,2992.50
2022-08-23T08:32:03.300Z,3065.62
2022-08-23T08:33:03.485Z,3076.88
2022-08-23T08:34:03.301Z,3043.12
2022-08-23T08:35:03.282Z,2925.00
2022-08-23T08:36:04.926Z,2851.88
2022-08-23T08:37:03.263Z,3093.75
2022-08-23T08:38:03.384Z,3161.25
2022-08-23T08:39:03.234Z,3172.50
2022-08-23T08:40:03.289Z,3301.88
2022-08-23T08:41:03.229Z,3571.88
2022-08-23T08:42:04.334Z,3470.62
2022-08-23T08:43:03.209Z,3172.50
2022-08-23T08:44:03.215Z,3071.25
2022-08-23T08:45:03.178Z,3054.38
2022-08-23T08:46:03.241Z,3189.38
2022-08-23T08:47:03.157Z,3189.38
2022-08-23T08:48:03.186Z,3054.38
2022-08-23T08:49:03.139Z,3138.75
2022-08-23T08:50:03.159Z,3099.38
2022-08-23T08:51:03.121Z,3065.62
2022-08-23T08:52:03.121Z,3161.25
2022-08-23T08:53:03.112Z,3375.00
2022-08-23T08:54:03.090Z,3448.12
2022-08-23T08:55:03.084Z,3397.50
2022-08-23T08:56:03.065Z,3391.88
2022-08-23T08:57:03.064Z,3195.00
2022-08-23T08:58:03.515Z,3166.88
2022-08-23T08:59:03.044Z,3211.88
2022-08-23T09:00:03.061Z,3313.12
2022-08-23T09:01:03.024Z,3796.88
2022-08-23T09:02:03.064Z,3746.25
2022-08-23T09:03:03.063Z,3656.25
2022-08-23T09:04:03.016Z,3616.88
2022-08-23T09:05:02.995Z,3481.88
2022-08-23T09:06:03.026Z,3498.75
2022-08-23T09:07:02.977Z,3307.50
2022-08-23T09:08:03.215Z,3262.50
2022-08-23T09:09:02.978Z,3228.75
2022-08-23T09:10:03.779Z,3324.38
2022-08-23T09:11:02.929Z,3453.75
2022-08-23T09:12:02.994Z,3538.12
2022-08-23T09:13:02.929Z,3712.50
2022-08-23T09:14:02.913Z,3853.12
2022-08-23T09:15:02.926Z,3701.25
2022-08-23T09:16:02.917Z,3431.25
2022-08-23T09:17:05.571Z,3403.12
2022-08-23T09:18:03.027Z,3583.12
2022-08-23T09:19:02.862Z,3684.38
2022-08-23T09:20:02.917Z,3746.25
2022-08-23T09:21:02.854Z,3667.50
2022-08-23T09:22:02.857Z,3600.00
2022-08-23T09:23:02.835Z,3836.25
2022-08-23T09:24:02.863Z,3819.38
2022-08-23T09:25:02.806Z,3633.75
2022-08-23T09:26:03.990Z,3639.38
2022-08-23T09:27:02.798Z,3521.25
2022-08-23T09:28:02.785Z,3442.50
2022-08-23T09:29:02.768Z,3560.62
2022-08-23T09:30:02.788Z,4106.25
2022-08-23T09:31:02.803Z,4286.25
2022-08-23T09:32:02.760Z,4010.62
2022-08-23T09:33:02.749Z,3926.25
2022-08-23T09:34:02.752Z,3982.50
2022-08-23T09:35:02.727Z,4050.00
2022-08-23T09:36:02.760Z,3757.50
2022-08-23T09:37:02.696Z,3718.12
2022-08-23T09:38:02.924Z,3993.75
2022-08-23T09:39:02.684Z,3881.25
2022-08-23T09:40:02.763Z,3965.62
2022-08-23T09:41:02.665Z,4162.50
2022-08-23T09:42:02.679Z,4050.00
2022-08-23T09:43:02.655Z,3853.12
2022-08-23T09:44:02.788Z,3943.12
2022-08-23T09:45:02.626Z,3943.12
2022-08-23T09:46:02.697Z,3892.50
2022-08-23T09:47:02.696Z,4027.50
2022-08-23T09:48:02.824Z,3813.75
2022-08-23T09:49:02.606Z,3656.25
2022-08-23T09:50:02.589Z,4201.88
2022-08-23T09:51:02.631Z,4455.00
2022-08-23T09:52:03.163Z,4128.75
2022-08-23T09:53:04.342Z,3875.62
2022-08-23T09:54:07.016Z,3825.00
2022-08-23T09:55:02.540Z,3768.75
2022-08-23T09:56:02.568Z,4061.25
2022-08-23T09:57:02.540Z,4179.38
2022-08-23T09:58:02.555Z,3999.38
2022-08-23T09:59:02.512Z,4140.00
2022-08-23T10:00:02.535Z,4331.25
2022-08-23T10:01:02.482Z,4494.38
2022-08-23T10:02:02.678Z,4066.88
2022-08-23T10:03:02.595Z,3960.00
2022-08-23T10:04:02.484Z,3825.00
2022-08-23T10:05:02.508Z,3684.38
2022-08-23T10:06:03.404Z,3751.88
2022-08-23T10:07:02.438Z,4303.12
2022-08-23T10:08:02.455Z,4331.25
2022-08-23T10:09:02.437Z,4072.50
2022-08-23T10:10:02.458Z,4100.62
2022-08-23T10:11:02.409Z,4010.62
2022-08-23T10:12:02.921Z,3982.50
2022-08-23T10:13:02.641Z,4196.25
2022-08-23T10:14:02.387Z,4438.12
2022-08-23T10:15:02.369Z,4218.75
2022-08-23T10:16:02.548Z,3948.75
2022-08-23T10:17:02.362Z,4123.12
2022-08-23T10:18:02.568Z,4224.38
2022-08-23T10:19:02.374Z,4100.62
2022-08-23T10:20:02.342Z,4117.50
2022-08-23T10:21:02.322Z,4320.00
2022-08-23T10:22:02.374Z,4185.00
2022-08-23T10:23:02.320Z,4196.25
2022-08-23T10:24:02.363Z,4140.00
2022-08-23T10:25:02.281Z,4162.50
2022-08-23T10:26:02.284Z,4241.25
2022-08-23T10:27:02.273Z,4078.12
2022-08-23T10:28:02.497Z,4320.00
2022-08-23T10:29:02.254Z,4471.88
2022-08-23T10:30:02.286Z,4297.50
2022-08-23T10:31:02.293Z,4286.25
2022-08-23T10:32:02.295Z,4381.88
2022-08-23T10:33:02.236Z,4561.88
2022-08-23T10:34:02.244Z,4725.00
2022-08-23T10:35:02.207Z,4286.25
2022-08-23T10:36:02.332Z,4404.38
2022-08-23T10:37:02.189Z,4916.25
2022-08-23T10:38:02.436Z,5023.12
2022-08-23T10:39:02.171Z,4646.25
2022-08-23T10:40:04.166Z,3858.75
2022-08-23T10:41:02.159Z,4140.00
2022-08-23T10:42:02.205Z,4359.38
2022-08-23T10:43:02.148Z,4128.75
2022-08-23T10:44:02.198Z,4190.62
2022-08-23T10:45:02.130Z,4100.62
2022-08-23T10:46:02.172Z,3920.62
2022-08-23T10:47:02.120Z,3982.50
2022-08-23T10:48:02.592Z,4286.25
2022-08-23T10:49:02.226Z,4308.75
2022-08-23T10:50:02.215Z,4072.50
2022-08-23T10:51:02.086Z,3937.50
2022-08-23T10:52:02.099Z,3802.50
2022-08-23T10:53:02.073Z,4044.38
2022-08-23T10:54:02.085Z,3931.88
2022-08-23T10:55:02.043Z,4010.62
2022-08-23T10:56:02.074Z,4100.62
2022-08-23T10:57:02.053Z,4359.38
2022-08-23T10:58:02.231Z,4590.00
2022-08-23T10:59:02.021Z,4505.62
2022-08-23T11:00:02.096Z,4151.25
2022-08-23T11:01:02.028Z,4224.38
2022-08-23T11:02:02.003Z,4466.25
2022-08-23T11:03:02.068Z,4151.25
2022-08-23T11:04:02.046Z,3791.25
2022-08-23T11:05:01.967Z,4179.38
2022-08-23T11:06:01.959Z,4815.00
2022-08-23T11:07:01.978Z,4432.50
2022-08-23T11:08:02.175Z,4224.38
2022-08-23T11:09:01.944Z,4168.12
2022-08-23T11:10:02.143Z,3937.50
2022-08-23T11:11:01.931Z,4055.62
2022-08-23T11:12:02.003Z,4331.25
2022-08-23T11:13:01.902Z,3999.38
2022-08-23T11:14:03.680Z,3864.38
2022-08-23T11:15:01.892Z,4089.38
2022-08-23T11:16:02.006Z,4297.50
2022-08-23T11:17:01.882Z,4196.25
2022-08-23T11:18:02.060Z,4246.88
2022-08-23T11:19:01.864Z,4376.25
2022-08-23T11:20:01.845Z,4218.75
2022-08-23T11:21:01.884Z,4016.25
2022-08-23T11:22:01.866Z,4072.50
2022-08-23T11:23:01.835Z,4438.12
2022-08-23T11:24:01.814Z,4719.38
2022-08-23T11:25:01.806Z,3954.38
2022-08-23T11:26:01.805Z,4235.62
2022-08-23T11:27:06.010Z,4162.50
2022-08-23T11:28:01.948Z,4156.88
2022-08-23T11:29:01.776Z,4066.88
2022-08-23T11:30:01.807Z,3965.62
2022-08-23T11:31:01.809Z,4066.88
2022-08-23T11:32:01.748Z,4308.75
2022-08-23T11:33:01.747Z,4258.12
2022-08-23T11:34:01.763Z,4066.88
2022-08-23T11:35:01.729Z,3825.00
2022-08-23T11:36:01.739Z,4230.00
2022-08-23T11:37:01.715Z,3999.38
2022-08-23T11:38:03.973Z,4173.75
2022-08-23T11:39:01.700Z,4190.62
2022-08-23T11:40:01.745Z,4168.12
2022-08-23T11:41:01.700Z,4280.62
2022-08-23T11:42:01.671Z,4021.88
2022-08-23T11:43:01.674Z,3583.12
2022-08-23T11:44:01.741Z,3481.88
2022-08-23T11:45:01.661Z,3678.75
2022-08-23T11:46:01.706Z,4100.62
2022-08-23T11:47:01.642Z,4314.38
2022-08-23T11:48:01.769Z,4140.00
2022-08-23T11:49:01.624Z,4010.62
2022-08-23T11:50:01.603Z,2761.88
2022-08-23T11:51:01.624Z,4123.12
2022-08-23T11:52:01.596Z,4196.25
2022-08-23T11:53:01.615Z,4331.25
2022-08-23T11:54:01.583Z,4078.12
2022-08-23T11:55:01.567Z,4190.62
2022-08-23T11:56:01.576Z,4809.38
2022-08-23T11:57:01.558Z,4483.12
2022-08-23T11:58:01.666Z,4156.88
2022-08-23T11:59:02.610Z,3937.50
2022-08-23T12:00:02.727Z,4010.62
2022-08-23T12:01:01.530Z,4055.62
2022-08-23T12:02:01.557Z,4230.00
2022-08-23T12:03:01.651Z,1468.12
2022-08-23T12:04:01.710Z,1243.12
2022-08-23T12:05:01.508Z,4156.88
2022-08-23T12:06:02.594Z,2638.12
2022-08-23T12:07:01.497Z,4038.75
2022-08-23T12:08:01.685Z,4089.38
2022-08-23T12:09:01.755Z,4044.38
2022-08-23T12:10:01.450Z,4010.62
2022-08-23T12:11:01.440Z,4038.75
2022-08-23T12:12:01.441Z,4072.50
2022-08-23T12:13:01.434Z,3178.12
2022-08-23T12:14:01.439Z,1293.75
2022-08-23T12:15:01.413Z,4477.50
2022-08-23T12:16:01.429Z,3481.88
2022-08-23T12:17:01.414Z,4269.38
2022-08-23T12:18:01.565Z,4066.88
2022-08-23T12:19:01.426Z,3661.88
2022-08-23T12:20:01.383Z,3465.00
2022-08-23T12:21:01.363Z,3251.25
2022-08-23T12:22:01.355Z,3330.00
2022-08-23T12:23:01.357Z,3965.62
2022-08-23T12:24:01.505Z,3819.38
2022-08-23T12:25:01.333Z,3600.00
2022-08-23T12:26:01.324Z,3768.75
2022-08-23T12:27:01.326Z,3886.88
2022-08-23T12:28:01.467Z,3791.25
2022-08-23T12:29:01.298Z,3791.25
2022-08-23T12:30:01.297Z,4005.00
2022-08-23T12:31:08.155Z,3245.62
2022-08-23T12:32:02.366Z,4235.62
2022-08-23T12:33:01.266Z,4443.75
2022-08-23T12:34:01.257Z,4095.00
2022-08-23T12:35:01.260Z,4162.50
2022-08-23T12:36:01.240Z,3892.50
2022-08-23T12:37:01.244Z,3712.50
2022-08-23T12:38:01.332Z,3931.88